sensor_id;sensor_type;location;lat;lon;timestamp;P1;durP1;ratioP1;P2;durP2;ratioP2
75320;SDS011;68337;52.196;5.660;2023-03-19T00:02:16;5.05;;;2.90;;
75320;SDS011;68337;52.196;5.660;2023-03-19T00:04:42;2.72;;;2.47;;
75320;SDS011;68337;52.196;5.660;2023-03-19T00:07:07;4.85;;;3.15;;
75320;SDS011;68337;52.196;5.660;2023-03-19T00:09:33;5.05;;;2.67;;
75320;SDS011;68337;52.196;5.660;2023-03-19T00:11:59;3.47;;;3.17;;
75320;SDS011;68337;52.196;5.660;2023-03-19T00:14:25;3.20;;;2.90;;
75320;SDS011;68337;52.196;5.660;2023-03-19T00:16:50;3.92;;;3.47;;
75320;SDS011;68337;52.196;5.660;2023-03-19T00:19:16;3.60;;;3.40;;
75320;SDS011;68337;52.196;5.660;2023-03-19T00:21:42;4.18;;;2.85;;
75320;SDS011;68337;52.196;5.660;2023-03-19T00:24:08;3.30;;;3.00;;
75320;SDS011;68337;52.196;5.660;2023-03-19T00:26:34;3.22;;;2.97;;
75320;SDS011;68337;52.196;5.660;2023-03-19T00:29:01;3.10;;;2.80;;
75320;SDS011;68337;52.196;5.660;2023-03-19T00:31:28;3.17;;;2.88;;
75320;SDS011;68337;52.196;5.660;2023-03-19T00:33:55;5.78;;;3.33;;
75320;SDS011;68337;52.196;5.660;2023-03-19T00:36:22;4.07;;;3.35;;
75320;SDS011;68337;52.196;5.660;2023-03-19T00:38:49;4.25;;;3.40;;
75320;SDS011;68337;52.196;5.660;2023-03-19T00:41:15;4.50;;;4.10;;
75320;SDS011;68337;52.196;5.660;2023-03-19T00:43:42;4.18;;;3.53;;
75320;SDS011;68337;52.196;5.660;2023-03-19T00:46:08;4.03;;;3.72;;
75320;SDS011;68337;52.196;5.660;2023-03-19T00:48:34;3.60;;;3.30;;
75320;SDS011;68337;52.196;5.660;2023-03-19T00:51:03;3.53;;;3.22;;
75320;SDS011;68337;52.196;5.660;2023-03-19T00:53:30;4.30;;;3.75;;
75320;SDS011;68337;52.196;5.660;2023-03-19T00:55:57;3.17;;;2.97;;
75320;SDS011;68337;52.196;5.660;2023-03-19T00:58:23;4.20;;;3.13;;
75320;SDS011;68337;52.196;5.660;2023-03-19T01:00:51;4.78;;;3.65;;
75320;SDS011;68337;52.196;5.660;2023-03-19T01:03:17;4.22;;;3.40;;
75320;SDS011;68337;52.196;5.660;2023-03-19T01:05:43;4.88;;;3.08;;
75320;SDS011;68337;52.196;5.660;2023-03-19T01:08:12;4.07;;;3.03;;
75320;SDS011;68337;52.196;5.660;2023-03-19T01:10:38;3.10;;;2.90;;
75320;SDS011;68337;52.196;5.660;2023-03-19T01:13:04;5.78;;;3.63;;
75320;SDS011;68337;52.196;5.660;2023-03-19T01:15:34;4.70;;;3.10;;
75320;SDS011;68337;52.196;5.660;2023-03-19T01:18:03;6.78;;;3.03;;
75320;SDS011;68337;52.196;5.660;2023-03-19T01:20:30;3.72;;;2.88;;
75320;SDS011;68337;52.196;5.660;2023-03-19T01:22:56;4.90;;;3.28;;
75320;SDS011;68337;52.196;5.660;2023-03-19T01:25:21;4.55;;;2.67;;
75320;SDS011;68337;52.196;5.660;2023-03-19T01:27:47;2.85;;;2.65;;
75320;SDS011;68337;52.196;5.660;2023-03-19T01:30:14;4.55;;;2.97;;
75320;SDS011;68337;52.196;5.660;2023-03-19T01:32:40;6.93;;;3.08;;
75320;SDS011;68337;52.196;5.660;2023-03-19T01:35:06;3.40;;;3.10;;
75320;SDS011;68337;52.196;5.660;2023-03-19T01:37:32;3.55;;;2.63;;
75320;SDS011;68337;52.196;5.660;2023-03-19T01:39:58;3.30;;;3.00;;
75320;SDS011;68337;52.196;5.660;2023-03-19T01:42:23;3.85;;;2.80;;
75320;SDS011;68337;52.196;5.660;2023-03-19T01:44:49;3.80;;;2.85;;
75320;SDS011;68337;52.196;5.660;2023-03-19T01:49:44;3.80;;;3.03;;
75320;SDS011;68337;52.196;5.660;2023-03-19T01:52:16;3.40;;;2.85;;
75320;SDS011;68337;52.196;5.660;2023-03-19T01:54:41;2.83;;;2.60;;
75320;SDS011;68337;52.196;5.660;2023-03-19T01:57:08;3.92;;;2.92;;
75320;SDS011;68337;52.196;5.660;2023-03-19T01:59:38;3.20;;;2.83;;
75320;SDS011;68337;52.196;5.660;2023-03-19T02:02:15;5.65;;;3.22;;
75320;SDS011;68337;52.196;5.660;2023-03-19T02:04:50;3.80;;;3.42;;
75320;SDS011;68337;52.196;5.660;2023-03-19T02:07:20;3.78;;;3.45;;
75320;SDS011;68337;52.196;5.660;2023-03-19T02:09:46;3.75;;;3.45;;
75320;SDS011;68337;52.196;5.660;2023-03-19T02:12:12;4.93;;;3.53;;
75320;SDS011;68337;52.196;5.660;2023-03-19T02:14:38;3.85;;;3.55;;
75320;SDS011;68337;52.196;5.660;2023-03-19T02:17:04;4.13;;;3.83;;
75320;SDS011;68337;52.196;5.660;2023-03-19T02:22:02;5.13;;;4.30;;
75320;SDS011;68337;52.196;5.660;2023-03-19T02:24:32;4.95;;;4.45;;
75320;SDS011;68337;52.196;5.660;2023-03-19T02:27:01;5.07;;;3.95;;
75320;SDS011;68337;52.196;5.660;2023-03-19T02:29:28;4.95;;;3.97;;
75320;SDS011;68337;52.196;5.660;2023-03-19T02:31:54;5.78;;;3.95;;
75320;SDS011;68337;52.196;5.660;2023-03-19T02:36:47;4.60;;;3.78;;
75320;SDS011;68337;52.196;5.660;2023-03-19T02:39:31;4.20;;;3.88;;
75320;SDS011;68337;52.196;5.660;2023-03-19T02:42:00;4.20;;;3.90;;
75320;SDS011;68337;52.196;5.660;2023-03-19T02:44:27;4.82;;;4.43;;
75320;SDS011;68337;52.196;5.660;2023-03-19T02:46:53;4.80;;;4.40;;
75320;SDS011;68337;52.196;5.660;2023-03-19T02:49:18;4.53;;;4.13;;
75320;SDS011;68337;52.196;5.660;2023-03-19T02:51:44;5.40;;;4.50;;
75320;SDS011;68337;52.196;5.660;2023-03-19T02:54:10;6.07;;;4.20;;
75320;SDS011;68337;52.196;5.660;2023-03-19T02:56:35;4.50;;;4.10;;
75320;SDS011;68337;52.196;5.660;2023-03-19T02:59:01;4.32;;;3.92;;
75320;SDS011;68337;52.196;5.660;2023-03-19T03:01:27;5.10;;;3.97;;
75320;SDS011;68337;52.196;5.660;2023-03-19T03:03:53;4.80;;;4.32;;
75320;SDS011;68337;52.196;5.660;2023-03-19T03:06:19;4.28;;;3.92;;
75320;SDS011;68337;52.196;5.660;2023-03-19T03:08:45;4.05;;;3.72;;
75320;SDS011;68337;52.196;5.660;2023-03-19T03:11:11;3.90;;;3.60;;
75320;SDS011;68337;52.196;5.660;2023-03-19T03:13:37;4.18;;;3.88;;
75320;SDS011;68337;52.196;5.660;2023-03-19T03:16:02;4.30;;;3.90;;
75320;SDS011;68337;52.196;5.660;2023-03-19T03:18:28;4.93;;;4.40;;
75320;SDS011;68337;52.196;5.660;2023-03-19T03:20:54;4.70;;;4.30;;
75320;SDS011;68337;52.196;5.660;2023-03-19T03:23:19;4.78;;;4.43;;
75320;SDS011;68337;52.196;5.660;2023-03-19T03:25:49;3.92;;;3.63;;
75320;SDS011;68337;52.196;5.660;2023-03-19T03:28:16;6.00;;;5.05;;
75320;SDS011;68337;52.196;5.660;2023-03-19T03:30:43;5.78;;;5.28;;
75320;SDS011;68337;52.196;5.660;2023-03-19T03:33:09;5.72;;;5.13;;
75320;SDS011;68337;52.196;5.660;2023-03-19T03:35:34;5.82;;;5.30;;
75320;SDS011;68337;52.196;5.660;2023-03-19T03:38:01;6.90;;;5.47;;
75320;SDS011;68337;52.196;5.660;2023-03-19T03:40:28;6.95;;;5.82;;
75320;SDS011;68337;52.196;5.660;2023-03-19T03:42:54;7.65;;;6.75;;
75320;SDS011;68337;52.196;5.660;2023-03-19T03:45:20;7.35;;;6.65;;
75320;SDS011;68337;52.196;5.660;2023-03-19T03:47:46;8.82;;;6.22;;
75320;SDS011;68337;52.196;5.660;2023-03-19T03:50:12;7.10;;;6.40;;
75320;SDS011;68337;52.196;5.660;2023-03-19T03:52:38;8.75;;;7.40;;
75320;SDS011;68337;52.196;5.660;2023-03-19T03:55:04;8.15;;;7.35;;
75320;SDS011;68337;52.196;5.660;2023-03-19T03:57:30;8.32;;;7.53;;
75320;SDS011;68337;52.196;5.660;2023-03-19T03:59:56;12.60;;;7.95;;
75320;SDS011;68337;52.196;5.660;2023-03-19T04:02:21;8.75;;;7.78;;
75320;SDS011;68337;52.196;5.660;2023-03-19T04:04:47;8.25;;;7.13;;
75320;SDS011;68337;52.196;5.660;2023-03-19T04:07:13;8.40;;;7.22;;
75320;SDS011;68337;52.196;5.660;2023-03-19T04:09:39;10.02;;;7.20;;
75320;SDS011;68337;52.196;5.660;2023-03-19T04:12:05;9.00;;;7.50;;
75320;SDS011;68337;52.196;5.660;2023-03-19T04:14:31;8.35;;;7.55;;
75320;SDS011;68337;52.196;5.660;2023-03-19T04:16:56;9.88;;;7.28;;
75320;SDS011;68337;52.196;5.660;2023-03-19T04:19:22;8.18;;;7.38;;
75320;SDS011;68337;52.196;5.660;2023-03-19T04:21:48;11.18;;;7.72;;
75320;SDS011;68337;52.196;5.660;2023-03-19T04:24:14;17.52;;;9.20;;
75320;SDS011;68337;52.196;5.660;2023-03-19T04:26:40;12.45;;;8.70;;
75320;SDS011;68337;52.196;5.660;2023-03-19T04:29:06;12.68;;;10.32;;
75320;SDS011;68337;52.196;5.660;2023-03-19T04:31:35;14.75;;;11.70;;
75320;SDS011;68337;52.196;5.660;2023-03-19T04:34:00;17.33;;;11.43;;
75320;SDS011;68337;52.196;5.660;2023-03-19T04:36:26;16.52;;;13.57;;
75320;SDS011;68337;52.196;5.660;2023-03-19T04:38:52;12.45;;;11.15;;
75320;SDS011;68337;52.196;5.660;2023-03-19T04:41:17;13.93;;;11.25;;
75320;SDS011;68337;52.196;5.660;2023-03-19T04:43:43;13.95;;;11.07;;
75320;SDS011;68337;52.196;5.660;2023-03-19T04:46:09;15.02;;;12.35;;
75320;SDS011;68337;52.196;5.660;2023-03-19T04:48:35;15.30;;;13.45;;
75320;SDS011;68337;52.196;5.660;2023-03-19T04:51:02;15.50;;;13.18;;
75320;SDS011;68337;52.196;5.660;2023-03-19T04:53:28;16.23;;;13.07;;
75320;SDS011;68337;52.196;5.660;2023-03-19T04:55:54;14.48;;;12.63;;
75320;SDS011;68337;52.196;5.660;2023-03-19T04:58:20;17.52;;;13.48;;
75320;SDS011;68337;52.196;5.660;2023-03-19T05:00:46;14.98;;;12.70;;
75320;SDS011;68337;52.196;5.660;2023-03-19T05:03:12;16.10;;;12.30;;
75320;SDS011;68337;52.196;5.660;2023-03-19T05:05:39;17.27;;;13.23;;
75320;SDS011;68337;52.196;5.660;2023-03-19T05:08:05;15.30;;;13.65;;
75320;SDS011;68337;52.196;5.660;2023-03-19T05:10:32;16.02;;;12.73;;
75320;SDS011;68337;52.196;5.660;2023-03-19T05:12:59;16.80;;;13.68;;
75320;SDS011;68337;52.196;5.660;2023-03-19T05:15:24;18.98;;;13.57;;
75320;SDS011;68337;52.196;5.660;2023-03-19T05:17:50;17.10;;;12.77;;
75320;SDS011;68337;52.196;5.660;2023-03-19T05:20:16;17.05;;;13.13;;
75320;SDS011;68337;52.196;5.660;2023-03-19T05:22:42;17.98;;;14.35;;
75320;SDS011;68337;52.196;5.660;2023-03-19T05:25:08;22.27;;;14.48;;
75320;SDS011;68337;52.196;5.660;2023-03-19T05:27:34;16.83;;;13.65;;
75320;SDS011;68337;52.196;5.660;2023-03-19T05:30:00;20.35;;;14.70;;
75320;SDS011;68337;52.196;5.660;2023-03-19T05:32:26;17.02;;;13.70;;
75320;SDS011;68337;52.196;5.660;2023-03-19T05:34:52;17.17;;;13.73;;
75320;SDS011;68337;52.196;5.660;2023-03-19T05:37:18;17.40;;;13.52;;
75320;SDS011;68337;52.196;5.660;2023-03-19T05:39:43;17.52;;;14.00;;
75320;SDS011;68337;52.196;5.660;2023-03-19T05:42:09;21.80;;;16.27;;
75320;SDS011;68337;52.196;5.660;2023-03-19T05:44:36;18.50;;;15.13;;
75320;SDS011;68337;52.196;5.660;2023-03-19T05:47:02;21.88;;;14.98;;
75320;SDS011;68337;52.196;5.660;2023-03-19T05:49:27;19.65;;;14.80;;
75320;SDS011;68337;52.196;5.660;2023-03-19T05:51:53;19.90;;;15.88;;
75320;SDS011;68337;52.196;5.660;2023-03-19T05:54:19;21.15;;;15.15;;
75320;SDS011;68337;52.196;5.660;2023-03-19T05:56:45;18.70;;;16.33;;
75320;SDS011;68337;52.196;5.660;2023-03-19T05:59:10;22.85;;;17.15;;
75320;SDS011;68337;52.196;5.660;2023-03-19T06:01:36;22.42;;;16.70;;
75320;SDS011;68337;52.196;5.660;2023-03-19T06:04:04;23.90;;;16.73;;
75320;SDS011;68337;52.196;5.660;2023-03-19T06:06:30;18.77;;;14.95;;
75320;SDS011;68337;52.196;5.660;2023-03-19T06:08:55;20.42;;;15.20;;
75320;SDS011;68337;52.196;5.660;2023-03-19T06:11:21;17.92;;;14.80;;
75320;SDS011;68337;52.196;5.660;2023-03-19T06:13:47;21.15;;;15.93;;
75320;SDS011;68337;52.196;5.660;2023-03-19T06:16:13;22.52;;;15.27;;
75320;SDS011;68337;52.196;5.660;2023-03-19T06:18:39;19.42;;;15.25;;
75320;SDS011;68337;52.196;5.660;2023-03-19T06:21:05;20.52;;;15.63;;
75320;SDS011;68337;52.196;5.660;2023-03-19T06:23:31;17.50;;;13.93;;
75320;SDS011;68337;52.196;5.660;2023-03-19T06:25:56;21.80;;;15.02;;
75320;SDS011;68337;52.196;5.660;2023-03-19T06:28:22;18.05;;;14.68;;
75320;SDS011;68337;52.196;5.660;2023-03-19T06:30:48;19.17;;;14.68;;
75320;SDS011;68337;52.196;5.660;2023-03-19T06:33:13;20.25;;;14.07;;
75320;SDS011;68337;52.196;5.660;2023-03-19T06:35:39;18.85;;;14.40;;
75320;SDS011;68337;52.196;5.660;2023-03-19T06:38:05;16.38;;;13.93;;
75320;SDS011;68337;52.196;5.660;2023-03-19T06:40:31;20.45;;;14.35;;
75320;SDS011;68337;52.196;5.660;2023-03-19T06:42:57;22.33;;;14.63;;
75320;SDS011;68337;52.196;5.660;2023-03-19T06:45:23;17.27;;;14.60;;
75320;SDS011;68337;52.196;5.660;2023-03-19T06:47:49;21.40;;;15.43;;
75320;SDS011;68337;52.196;5.660;2023-03-19T06:50:15;20.80;;;14.98;;
75320;SDS011;68337;52.196;5.660;2023-03-19T06:52:42;21.15;;;15.50;;
75320;SDS011;68337;52.196;5.660;2023-03-19T06:55:08;20.55;;;16.15;;
75320;SDS011;68337;52.196;5.660;2023-03-19T06:57:35;24.30;;;17.50;;
75320;SDS011;68337;52.196;5.660;2023-03-19T07:00:01;21.83;;;16.10;;
75320;SDS011;68337;52.196;5.660;2023-03-19T07:02:28;22.65;;;16.90;;
75320;SDS011;68337;52.196;5.660;2023-03-19T07:04:53;22.77;;;17.02;;
75320;SDS011;68337;52.196;5.660;2023-03-19T07:07:19;28.92;;;19.73;;
75320;SDS011;68337;52.196;5.660;2023-03-19T07:09:45;27.58;;;20.65;;
75320;SDS011;68337;52.196;5.660;2023-03-19T07:12:11;32.88;;;23.88;;
75320;SDS011;68337;52.196;5.660;2023-03-19T07:14:37;34.50;;;23.15;;
75320;SDS011;68337;52.196;5.660;2023-03-19T07:17:02;33.22;;;21.70;;
75320;SDS011;68337;52.196;5.660;2023-03-19T07:19:28;36.92;;;25.60;;
75320;SDS011;68337;52.196;5.660;2023-03-19T07:21:54;38.97;;;27.73;;
75320;SDS011;68337;52.196;5.660;2023-03-19T07:24:20;43.72;;;30.50;;
75320;SDS011;68337;52.196;5.660;2023-03-19T07:26:46;42.60;;;28.33;;
75320;SDS011;68337;52.196;5.660;2023-03-19T07:29:12;44.03;;;28.85;;
75320;SDS011;68337;52.196;5.660;2023-03-19T07:31:38;40.47;;;27.65;;
75320;SDS011;68337;52.196;5.660;2023-03-19T07:34:04;37.78;;;27.23;;
75320;SDS011;68337;52.196;5.660;2023-03-19T07:36:30;46.85;;;29.15;;
75320;SDS011;68337;52.196;5.660;2023-03-19T07:38:55;40.33;;;29.88;;
75320;SDS011;68337;52.196;5.660;2023-03-19T07:41:21;35.70;;;26.00;;
75320;SDS011;68337;52.196;5.660;2023-03-19T07:43:47;47.72;;;29.95;;
75320;SDS011;68337;52.196;5.660;2023-03-19T07:46:14;50.25;;;32.90;;
75320;SDS011;68337;52.196;5.660;2023-03-19T07:48:40;49.85;;;33.35;;
75320;SDS011;68337;52.196;5.660;2023-03-19T07:51:06;59.33;;;37.08;;
75320;SDS011;68337;52.196;5.660;2023-03-19T07:53:31;58.55;;;37.65;;
75320;SDS011;68337;52.196;5.660;2023-03-19T07:55:57;59.45;;;36.80;;
75320;SDS011;68337;52.196;5.660;2023-03-19T07:58:23;56.88;;;37.47;;
75320;SDS011;68337;52.196;5.660;2023-03-19T08:00:48;53.40;;;36.33;;
75320;SDS011;68337;52.196;5.660;2023-03-19T08:03:14;57.33;;;37.65;;
75320;SDS011;68337;52.196;5.660;2023-03-19T08:05:41;51.08;;;35.35;;
75320;SDS011;68337;52.196;5.660;2023-03-19T08:08:07;57.83;;;36.55;;
75320;SDS011;68337;52.196;5.660;2023-03-19T08:10:33;54.58;;;35.13;;
75320;SDS011;68337;52.196;5.660;2023-03-19T08:12:58;56.08;;;32.95;;
75320;SDS011;68337;52.196;5.660;2023-03-19T08:15:24;45.88;;;30.70;;
75320;SDS011;68337;52.196;5.660;2023-03-19T08:17:57;49.80;;;29.60;;
75320;SDS011;68337;52.196;5.660;2023-03-19T08:20:24;43.58;;;27.50;;
75320;SDS011;68337;52.196;5.660;2023-03-19T08:22:50;42.15;;;27.10;;
75320;SDS011;68337;52.196;5.660;2023-03-19T08:25:16;44.90;;;28.20;;
75320;SDS011;68337;52.196;5.660;2023-03-19T08:27:41;44.10;;;27.35;;
75320;SDS011;68337;52.196;5.660;2023-03-19T08:30:08;43.72;;;28.63;;
75320;SDS011;68337;52.196;5.660;2023-03-19T08:32:34;43.13;;;26.92;;
75320;SDS011;68337;52.196;5.660;2023-03-19T08:35:00;38.40;;;26.13;;
75320;SDS011;68337;52.196;5.660;2023-03-19T08:37:27;42.30;;;27.08;;
75320;SDS011;68337;52.196;5.660;2023-03-19T08:39:53;41.33;;;28.10;;
75320;SDS011;68337;52.196;5.660;2023-03-19T08:42:18;43.15;;;26.63;;
75320;SDS011;68337;52.196;5.660;2023-03-19T08:44:45;39.47;;;26.73;;
75320;SDS011;68337;52.196;5.660;2023-03-19T08:47:12;47.05;;;28.42;;
75320;SDS011;68337;52.196;5.660;2023-03-19T08:49:37;38.28;;;25.25;;
75320;SDS011;68337;52.196;5.660;2023-03-19T08:52:03;39.05;;;25.42;;
75320;SDS011;68337;52.196;5.660;2023-03-19T08:54:30;38.25;;;25.52;;
75320;SDS011;68337;52.196;5.660;2023-03-19T08:56:56;40.28;;;26.52;;
75320;SDS011;68337;52.196;5.660;2023-03-19T08:59:23;38.00;;;25.65;;
75320;SDS011;68337;52.196;5.660;2023-03-19T09:01:51;35.20;;;23.48;;
75320;SDS011;68337;52.196;5.660;2023-03-19T09:04:21;33.75;;;24.50;;
75320;SDS011;68337;52.196;5.660;2023-03-19T09:06:47;36.58;;;24.55;;
75320;SDS011;68337;52.196;5.660;2023-03-19T09:09:17;31.85;;;23.15;;
75320;SDS011;68337;52.196;5.660;2023-03-19T09:11:43;36.17;;;24.13;;
75320;SDS011;68337;52.196;5.660;2023-03-19T09:14:10;34.00;;;23.17;;
75320;SDS011;68337;52.196;5.660;2023-03-19T09:16:36;32.45;;;23.58;;
75320;SDS011;68337;52.196;5.660;2023-03-19T09:19:03;32.83;;;22.65;;
75320;SDS011;68337;52.196;5.660;2023-03-19T09:21:29;34.20;;;22.52;;
75320;SDS011;68337;52.196;5.660;2023-03-19T09:23:55;35.80;;;23.35;;
75320;SDS011;68337;52.196;5.660;2023-03-19T09:26:21;30.15;;;21.70;;
75320;SDS011;68337;52.196;5.660;2023-03-19T09:28:46;33.00;;;23.88;;
75320;SDS011;68337;52.196;5.660;2023-03-19T09:31:12;35.17;;;24.40;;
75320;SDS011;68337;52.196;5.660;2023-03-19T09:33:38;32.75;;;23.45;;
75320;SDS011;68337;52.196;5.660;2023-03-19T09:36:04;32.53;;;22.85;;
75320;SDS011;68337;52.196;5.660;2023-03-19T09:38:30;31.10;;;22.48;;
75320;SDS011;68337;52.196;5.660;2023-03-19T09:41:17;31.60;;;22.23;;
75320;SDS011;68337;52.196;5.660;2023-03-19T09:46:48;27.40;;;22.10;;
75320;SDS011;68337;52.196;5.660;2023-03-19T09:49:34;29.77;;;22.15;;
75320;SDS011;68337;52.196;5.660;2023-03-19T09:54:48;30.58;;;21.80;;
75320;SDS011;68337;52.196;5.660;2023-03-19T09:57:17;30.40;;;22.73;;
75320;SDS011;68337;52.196;5.660;2023-03-19T09:59:43;31.17;;;22.27;;
75320;SDS011;68337;52.196;5.660;2023-03-19T10:16:06;30.73;;;21.67;;
75320;SDS011;68337;52.196;5.660;2023-03-19T10:18:46;25.75;;;19.52;;
75320;SDS011;68337;52.196;5.660;2023-03-19T10:21:19;26.73;;;18.55;;
75320;SDS011;68337;52.196;5.660;2023-03-19T10:23:53;27.38;;;19.17;;
75320;SDS011;68337;52.196;5.660;2023-03-19T10:26:25;27.00;;;18.00;;
75320;SDS011;68337;52.196;5.660;2023-03-19T10:29:05;24.42;;;18.40;;
75320;SDS011;68337;52.196;5.660;2023-03-19T10:36:45;21.88;;;17.38;;
75320;SDS011;68337;52.196;5.660;2023-03-19T10:39:11;22.48;;;16.83;;
75320;SDS011;68337;52.196;5.660;2023-03-19T10:44:26;36.58;;;25.95;;
75320;SDS011;68337;52.196;5.660;2023-03-19T10:46:57;24.60;;;16.30;;
75320;SDS011;68337;52.196;5.660;2023-03-19T10:49:33;24.67;;;16.48;;
75320;SDS011;68337;52.196;5.660;2023-03-19T10:52:00;22.55;;;15.77;;
75320;SDS011;68337;52.196;5.660;2023-03-19T10:54:27;24.08;;;17.20;;
75320;SDS011;68337;52.196;5.660;2023-03-19T10:56:55;25.05;;;17.38;;
75320;SDS011;68337;52.196;5.660;2023-03-19T11:02:01;24.30;;;16.48;;
75320;SDS011;68337;52.196;5.660;2023-03-19T11:04:38;26.50;;;17.35;;
75320;SDS011;68337;52.196;5.660;2023-03-19T11:07:13;25.48;;;17.33;;
75320;SDS011;68337;52.196;5.660;2023-03-19T11:09:47;23.23;;;16.25;;
75320;SDS011;68337;52.196;5.660;2023-03-19T11:12:18;26.33;;;18.17;;
75320;SDS011;68337;52.196;5.660;2023-03-19T11:14:56;24.73;;;18.35;;
75320;SDS011;68337;52.196;5.660;2023-03-19T11:17:45;26.85;;;17.35;;
75320;SDS011;68337;52.196;5.660;2023-03-19T11:22:48;28.70;;;19.67;;
75320;SDS011;68337;52.196;5.660;2023-03-19T11:25:17;25.42;;;18.45;;
75320;SDS011;68337;52.196;5.660;2023-03-19T11:28:05;27.80;;;18.65;;
75320;SDS011;68337;52.196;5.660;2023-03-19T11:40:03;25.38;;;16.52;;
75320;SDS011;68337;52.196;5.660;2023-03-19T11:42:43;19.65;;;15.35;;
75320;SDS011;68337;52.196;5.660;2023-03-19T11:45:30;21.83;;;15.77;;
75320;SDS011;68337;52.196;5.660;2023-03-19T11:48:16;21.80;;;16.00;;
75320;SDS011;68337;52.196;5.660;2023-03-19T11:58:34;23.38;;;15.20;;
75320;SDS011;68337;52.196;5.660;2023-03-19T12:01:20;21.60;;;15.63;;
75320;SDS011;68337;52.196;5.660;2023-03-19T12:04:03;19.98;;;14.70;;
75320;SDS011;68337;52.196;5.660;2023-03-19T12:07:06;18.70;;;14.18;;
75320;SDS011;68337;52.196;5.660;2023-03-19T12:20:55;18.40;;;14.93;;
75320;SDS011;68337;52.196;5.660;2023-03-19T12:27:02;24.35;;;17.30;;
75320;SDS011;68337;52.196;5.660;2023-03-19T12:35:38;23.33;;;16.60;;
75320;SDS011;68337;52.196;5.660;2023-03-19T12:40:52;23.90;;;16.38;;
75320;SDS011;68337;52.196;5.660;2023-03-19T12:46:34;28.15;;;20.35;;
75320;SDS011;68337;52.196;5.660;2023-03-19T13:00:20;31.20;;;20.65;;
75320;SDS011;68337;52.196;5.660;2023-03-19T13:10:55;32.00;;;20.67;;
75320;SDS011;68337;52.196;5.660;2023-03-19T13:16:23;33.88;;;20.65;;
75320;SDS011;68337;52.196;5.660;2023-03-19T13:21:55;31.70;;;21.02;;
75320;SDS011;68337;52.196;5.660;2023-03-19T13:26:58;27.35;;;19.83;;
75320;SDS011;68337;52.196;5.660;2023-03-19T13:29:30;26.40;;;19.10;;
75320;SDS011;68337;52.196;5.660;2023-03-19T13:32:23;28.52;;;20.08;;
75320;SDS011;68337;52.196;5.660;2023-03-19T13:34:51;31.23;;;20.95;;
75320;SDS011;68337;52.196;5.660;2023-03-19T13:37:39;31.95;;;20.00;;
75320;SDS011;68337;52.196;5.660;2023-03-19T13:48:38;22.75;;;16.33;;
75320;SDS011;68337;52.196;5.660;2023-03-19T13:54:05;22.73;;;15.50;;
75320;SDS011;68337;52.196;5.660;2023-03-19T13:56:34;21.25;;;14.20;;
75320;SDS011;68337;52.196;5.660;2023-03-19T14:01:56;20.98;;;13.43;;
75320;SDS011;68337;52.196;5.660;2023-03-19T14:04:26;21.00;;;12.82;;
75320;SDS011;68337;52.196;5.660;2023-03-19T14:06:57;20.75;;;12.68;;
75320;SDS011;68337;52.196;5.660;2023-03-19T14:09:46;23.40;;;12.98;;
75320;SDS011;68337;52.196;5.660;2023-03-19T14:15:13;19.70;;;13.07;;
75320;SDS011;68337;52.196;5.660;2023-03-19T14:22:40;18.27;;;11.65;;
75320;SDS011;68337;52.196;5.660;2023-03-19T14:25:27;23.08;;;13.57;;
75320;SDS011;68337;52.196;5.660;2023-03-19T14:28:18;21.45;;;13.10;;
75320;SDS011;68337;52.196;5.660;2023-03-19T14:30:57;23.20;;;13.60;;
75320;SDS011;68337;52.196;5.660;2023-03-19T14:33:27;23.85;;;13.27;;
75320;SDS011;68337;52.196;5.660;2023-03-19T14:36:01;22.63;;;13.45;;
75320;SDS011;68337;52.196;5.660;2023-03-19T14:41:19;23.55;;;12.95;;
75320;SDS011;68337;52.196;5.660;2023-03-19T14:46:51;21.50;;;12.90;;
75320;SDS011;68337;52.196;5.660;2023-03-19T14:59:58;23.63;;;13.18;;
75320;SDS011;68337;52.196;5.660;2023-03-19T15:02:41;21.38;;;12.63;;
75320;SDS011;68337;52.196;5.660;2023-03-19T15:08:00;24.33;;;13.38;;
75320;SDS011;68337;52.196;5.660;2023-03-19T15:11:16;22.65;;;13.43;;
75320;SDS011;68337;52.196;5.660;2023-03-19T15:16:26;24.35;;;12.98;;
75320;SDS011;68337;52.196;5.660;2023-03-19T15:19:01;23.23;;;12.77;;
75320;SDS011;68337;52.196;5.660;2023-03-19T15:21:28;23.63;;;13.32;;
75320;SDS011;68337;52.196;5.660;2023-03-19T15:23:55;20.90;;;12.40;;
75320;SDS011;68337;52.196;5.660;2023-03-19T15:26:32;22.17;;;12.73;;
75320;SDS011;68337;52.196;5.660;2023-03-19T15:29:00;23.45;;;13.40;;
75320;SDS011;68337;52.196;5.660;2023-03-19T15:31:59;19.45;;;12.27;;
75320;SDS011;68337;52.196;5.660;2023-03-19T15:34:22;21.17;;;12.93;;
75320;SDS011;68337;52.196;5.660;2023-03-19T15:36:54;24.00;;;12.45;;
75320;SDS011;68337;52.196;5.660;2023-03-19T15:39:31;22.23;;;14.13;;
75320;SDS011;68337;52.196;5.660;2023-03-19T15:42:02;21.17;;;12.98;;
75320;SDS011;68337;52.196;5.660;2023-03-19T15:44:33;20.98;;;13.18;;
75320;SDS011;68337;52.196;5.660;2023-03-19T15:47:23;18.50;;;12.88;;
75320;SDS011;68337;52.196;5.660;2023-03-19T15:49:53;26.30;;;13.70;;
75320;SDS011;68337;52.196;5.660;2023-03-19T15:52:34;30.13;;;14.90;;
75320;SDS011;68337;52.196;5.660;2023-03-19T15:55:04;22.02;;;14.65;;
75320;SDS011;68337;52.196;5.660;2023-03-19T15:57:31;24.40;;;14.88;;
75320;SDS011;68337;52.196;5.660;2023-03-19T16:00:00;26.17;;;15.07;;
75320;SDS011;68337;52.196;5.660;2023-03-19T16:02:29;25.85;;;14.93;;
75320;SDS011;68337;52.196;5.660;2023-03-19T16:04:58;26.25;;;15.18;;
75320;SDS011;68337;52.196;5.660;2023-03-19T16:07:31;23.65;;;14.93;;
75320;SDS011;68337;52.196;5.660;2023-03-19T16:13:03;26.13;;;17.08;;
75320;SDS011;68337;52.196;5.660;2023-03-19T16:16:32;29.60;;;17.38;;
75320;SDS011;68337;52.196;5.660;2023-03-19T16:18:49;33.35;;;18.30;;
75320;SDS011;68337;52.196;5.660;2023-03-19T16:21:17;30.65;;;18.77;;
75320;SDS011;68337;52.196;5.660;2023-03-19T16:23:50;28.77;;;18.15;;
75320;SDS011;68337;52.196;5.660;2023-03-19T16:26:41;32.53;;;17.88;;
75320;SDS011;68337;52.196;5.660;2023-03-19T16:31:43;29.02;;;18.63;;
75320;SDS011;68337;52.196;5.660;2023-03-19T16:36:49;30.70;;;18.38;;
75320;SDS011;68337;52.196;5.660;2023-03-19T16:39:34;30.08;;;20.48;;
75320;SDS011;68337;52.196;5.660;2023-03-19T16:44:39;33.78;;;21.23;;
75320;SDS011;68337;52.196;5.660;2023-03-19T16:47:08;31.25;;;19.88;;
75320;SDS011;68337;52.196;5.660;2023-03-19T16:49:36;31.35;;;19.25;;
75320;SDS011;68337;52.196;5.660;2023-03-19T16:52:02;30.25;;;19.80;;
75320;SDS011;68337;52.196;5.660;2023-03-19T16:54:28;30.15;;;19.52;;
75320;SDS011;68337;52.196;5.660;2023-03-19T16:56:54;32.28;;;20.95;;
75320;SDS011;68337;52.196;5.660;2023-03-19T16:59:23;31.63;;;20.35;;
75320;SDS011;68337;52.196;5.660;2023-03-19T17:01:52;34.10;;;21.60;;
75320;SDS011;68337;52.196;5.660;2023-03-19T17:04:18;32.45;;;19.90;;
75320;SDS011;68337;52.196;5.660;2023-03-19T17:06:44;31.80;;;21.15;;
75320;SDS011;68337;52.196;5.660;2023-03-19T17:09:10;34.17;;;21.48;;
75320;SDS011;68337;52.196;5.660;2023-03-19T17:11:36;30.13;;;20.20;;
75320;SDS011;68337;52.196;5.660;2023-03-19T17:14:05;37.25;;;21.05;;
75320;SDS011;68337;52.196;5.660;2023-03-19T17:16:37;32.90;;;20.73;;
75320;SDS011;68337;52.196;5.660;2023-03-19T17:19:11;35.88;;;22.10;;
75320;SDS011;68337;52.196;5.660;2023-03-19T17:21:45;33.50;;;21.88;;
75320;SDS011;68337;52.196;5.660;2023-03-19T17:24:31;42.10;;;27.95;;
75320;SDS011;68337;52.196;5.660;2023-03-19T17:27:01;39.05;;;23.27;;